sensor_id;sensor_type;location;lat;lon;timestamp;P1;durP1;ratioP1;P2;durP2;ratioP2
4074;SDS011;2052;53.522;9.806;2022-08-19T00:01:34;9.23;;;5.70;;
4074;SDS011;2052;53.522;9.806;2022-08-19T00:04:06;12.47;;;5.87;;
4074;SDS011;2052;53.522;9.806;2022-08-19T00:06:37;11.43;;;6.97;;
4074;SDS011;2052;53.522;9.806;2022-08-19T00:09:08;6.47;;;5.67;;
4074;SDS011;2052;53.522;9.806;2022-08-19T00:11:37;7.77;;;6.13;;
4074;SDS011;2052;53.522;9.806;2022-08-19T00:14:06;12.80;;;6.97;;
4074;SDS011;2052;53.522;9.806;2022-08-19T00:16:35;11.90;;;6.40;;
4074;SDS011;2052;53.522;9.806;2022-08-19T00:19:06;10.77;;;7.13;;
4074;SDS011;2052;53.522;9.806;2022-08-19T00:21:35;10.43;;;6.53;;
4074;SDS011;2052;53.522;9.806;2022-08-19T00:24:05;7.30;;;6.10;;
4074;SDS011;2052;53.522;9.806;2022-08-19T00:26:35;9.20;;;6.57;;
4074;SDS011;2052;53.522;9.806;2022-08-19T00:29:06;7.70;;;6.10;;
4074;SDS011;2052;53.522;9.806;2022-08-19T00:31:37;10.80;;;6.77;;
4074;SDS011;2052;53.522;9.806;2022-08-19T00:34:08;10.03;;;6.63;;
4074;SDS011;2052;53.522;9.806;2022-08-19T00:36:37;10.77;;;6.20;;
4074;SDS011;2052;53.522;9.806;2022-08-19T00:39:05;9.30;;;6.60;;
4074;SDS011;2052;53.522;9.806;2022-08-19T00:41:34;8.77;;;6.30;;
4074;SDS011;2052;53.522;9.806;2022-08-19T00:44:03;10.83;;;7.27;;
4074;SDS011;2052;53.522;9.806;2022-08-19T00:46:36;10.00;;;6.30;;
4074;SDS011;2052;53.522;9.806;2022-08-19T00:49:10;8.70;;;6.40;;
4074;SDS011;2052;53.522;9.806;2022-08-19T00:51:50;13.93;;;7.33;;
4074;SDS011;2052;53.522;9.806;2022-08-19T00:54:21;11.03;;;6.23;;
4074;SDS011;2052;53.522;9.806;2022-08-19T00:56:50;8.80;;;6.47;;
4074;SDS011;2052;53.522;9.806;2022-08-19T00:59:20;13.80;;;6.40;;
4074;SDS011;2052;53.522;9.806;2022-08-19T01:01:49;10.77;;;6.30;;
4074;SDS011;2052;53.522;9.806;2022-08-19T01:04:17;8.17;;;5.80;;
4074;SDS011;2052;53.522;9.806;2022-08-19T01:06:45;12.20;;;6.87;;
4074;SDS011;2052;53.522;9.806;2022-08-19T01:09:13;13.43;;;6.70;;
4074;SDS011;2052;53.522;9.806;2022-08-19T01:11:41;12.47;;;6.17;;
4074;SDS011;2052;53.522;9.806;2022-08-19T01:14:13;9.87;;;6.90;;
4074;SDS011;2052;53.522;9.806;2022-08-19T01:16:43;11.70;;;6.73;;
4074;SDS011;2052;53.522;9.806;2022-08-19T01:19:16;10.40;;;5.73;;
4074;SDS011;2052;53.522;9.806;2022-08-19T01:21:49;8.60;;;5.60;;
4074;SDS011;2052;53.522;9.806;2022-08-19T01:24:23;9.20;;;5.83;;
4074;SDS011;2052;53.522;9.806;2022-08-19T01:26:51;10.93;;;7.47;;
4074;SDS011;2052;53.522;9.806;2022-08-19T01:29:20;11.17;;;6.60;;
4074;SDS011;2052;53.522;9.806;2022-08-19T01:31:49;10.07;;;6.50;;
4074;SDS011;2052;53.522;9.806;2022-08-19T01:34:19;10.70;;;6.77;;
4074;SDS011;2052;53.522;9.806;2022-08-19T01:36:48;9.30;;;6.60;;
4074;SDS011;2052;53.522;9.806;2022-08-19T01:39:19;10.30;;;6.70;;
4074;SDS011;2052;53.522;9.806;2022-08-19T01:41:52;9.87;;;6.23;;
4074;SDS011;2052;53.522;9.806;2022-08-19T01:44:20;11.47;;;7.00;;
4074;SDS011;2052;53.522;9.806;2022-08-19T01:46:52;13.03;;;8.53;;
4074;SDS011;2052;53.522;9.806;2022-08-19T01:49:21;13.00;;;7.10;;
4074;SDS011;2052;53.522;9.806;2022-08-19T01:51:52;10.60;;;6.77;;
4074;SDS011;2052;53.522;9.806;2022-08-19T01:54:22;7.93;;;5.83;;
4074;SDS011;2052;53.522;9.806;2022-08-19T01:56:53;12.93;;;7.10;;
4074;SDS011;2052;53.522;9.806;2022-08-19T01:59:24;11.40;;;6.43;;
4074;SDS011;2052;53.522;9.806;2022-08-19T02:01:54;12.10;;;6.83;;
4074;SDS011;2052;53.522;9.806;2022-08-19T02:04:24;12.10;;;7.43;;
4074;SDS011;2052;53.522;9.806;2022-08-19T02:06:54;11.43;;;10.10;;
4074;SDS011;2052;53.522;9.806;2022-08-19T02:09:23;14.53;;;7.80;;
4074;SDS011;2052;53.522;9.806;2022-08-19T02:11:54;10.70;;;7.30;;
4074;SDS011;2052;53.522;9.806;2022-08-19T02:14:22;13.90;;;8.40;;
4074;SDS011;2052;53.522;9.806;2022-08-19T02:16:51;16.97;;;8.33;;
4074;SDS011;2052;53.522;9.806;2022-08-19T02:19:19;18.00;;;9.20;;
4074;SDS011;2052;53.522;9.806;2022-08-19T02:21:48;17.50;;;8.80;;
4074;SDS011;2052;53.522;9.806;2022-08-19T02:24:17;22.17;;;10.13;;
4074;SDS011;2052;53.522;9.806;2022-08-19T02:26:45;19.37;;;10.70;;
4074;SDS011;2052;53.522;9.806;2022-08-19T02:29:13;19.47;;;9.90;;
4074;SDS011;2052;53.522;9.806;2022-08-19T02:31:43;21.63;;;10.73;;
4074;SDS011;2052;53.522;9.806;2022-08-19T02:34:12;23.77;;;12.90;;
4074;SDS011;2052;53.522;9.806;2022-08-19T02:36:41;21.20;;;11.50;;
4074;SDS011;2052;53.522;9.806;2022-08-19T02:39:10;21.00;;;11.17;;
4074;SDS011;2052;53.522;9.806;2022-08-19T02:41:38;21.33;;;11.63;;
4074;SDS011;2052;53.522;9.806;2022-08-19T02:44:06;21.90;;;13.47;;
4074;SDS011;2052;53.522;9.806;2022-08-19T02:46:39;27.13;;;12.80;;
4074;SDS011;2052;53.522;9.806;2022-08-19T02:49:09;24.30;;;15.07;;
4074;SDS011;2052;53.522;9.806;2022-08-19T02:51:39;27.00;;;14.97;;
4074;SDS011;2052;53.522;9.806;2022-08-19T02:54:11;31.10;;;15.37;;
4074;SDS011;2052;53.522;9.806;2022-08-19T02:56:41;26.87;;;16.10;;
4074;SDS011;2052;53.522;9.806;2022-08-19T02:59:10;31.73;;;15.60;;
4074;SDS011;2052;53.522;9.806;2022-08-19T03:01:42;28.80;;;14.27;;
4074;SDS011;2052;53.522;9.806;2022-08-19T03:04:13;30.70;;;14.07;;
4074;SDS011;2052;53.522;9.806;2022-08-19T03:06:46;23.07;;;12.70;;
4074;SDS011;2052;53.522;9.806;2022-08-19T03:09:16;23.80;;;14.27;;
4074;SDS011;2052;53.522;9.806;2022-08-19T03:11:47;24.37;;;12.50;;
4074;SDS011;2052;53.522;9.806;2022-08-19T03:14:16;26.43;;;14.53;;
4074;SDS011;2052;53.522;9.806;2022-08-19T03:16:51;21.43;;;13.20;;
4074;SDS011;2052;53.522;9.806;2022-08-19T03:19:23;23.43;;;11.20;;
4074;SDS011;2052;53.522;9.806;2022-08-19T03:21:54;23.27;;;11.60;;
4074;SDS011;2052;53.522;9.806;2022-08-19T03:24:24;20.10;;;10.73;;
4074;SDS011;2052;53.522;9.806;2022-08-19T03:26:53;17.77;;;10.90;;
4074;SDS011;2052;53.522;9.806;2022-08-19T03:29:23;23.30;;;10.87;;
4074;SDS011;2052;53.522;9.806;2022-08-19T03:31:54;15.60;;;10.37;;
4074;SDS011;2052;53.522;9.806;2022-08-19T03:34:25;20.93;;;11.87;;
4074;SDS011;2052;53.522;9.806;2022-08-19T03:36:56;22.07;;;11.50;;
4074;SDS011;2052;53.522;9.806;2022-08-19T03:39:26;27.53;;;11.20;;
4074;SDS011;2052;53.522;9.806;2022-08-19T03:41:57;20.50;;;11.60;;
4074;SDS011;2052;53.522;9.806;2022-08-19T03:44:29;20.90;;;10.67;;
4074;SDS011;2052;53.522;9.806;2022-08-19T03:47:00;24.17;;;10.93;;
4074;SDS011;2052;53.522;9.806;2022-08-19T03:49:30;20.13;;;10.60;;
4074;SDS011;2052;53.522;9.806;2022-08-19T03:52:01;14.57;;;9.93;;
4074;SDS011;2052;53.522;9.806;2022-08-19T03:54:33;24.10;;;12.30;;
4074;SDS011;2052;53.522;9.806;2022-08-19T03:57:04;19.93;;;10.60;;
4074;SDS011;2052;53.522;9.806;2022-08-19T03:59:33;23.80;;;10.97;;
4074;SDS011;2052;53.522;9.806;2022-08-19T04:02:06;21.27;;;9.20;;
4074;SDS011;2052;53.522;9.806;2022-08-19T04:04:38;19.53;;;10.23;;
4074;SDS011;2052;53.522;9.806;2022-08-19T04:07:06;17.97;;;9.30;;
4074;SDS011;2052;53.522;9.806;2022-08-19T04:09:35;20.50;;;9.80;;
4074;SDS011;2052;53.522;9.806;2022-08-19T04:12:03;23.00;;;11.50;;
4074;SDS011;2052;53.522;9.806;2022-08-19T04:14:33;22.10;;;11.43;;
4074;SDS011;2052;53.522;9.806;2022-08-19T04:17:01;15.90;;;10.07;;
4074;SDS011;2052;53.522;9.806;2022-08-19T04:19:31;16.67;;;10.47;;
4074;SDS011;2052;53.522;9.806;2022-08-19T04:21:59;18.57;;;10.07;;
4074;SDS011;2052;53.522;9.806;2022-08-19T04:24:27;23.47;;;11.07;;
4074;SDS011;2052;53.522;9.806;2022-08-19T04:26:56;22.17;;;10.80;;
4074;SDS011;2052;53.522;9.806;2022-08-19T04:29:24;30.90;;;13.10;;
4074;SDS011;2052;53.522;9.806;2022-08-19T04:31:52;23.43;;;13.30;;
4074;SDS011;2052;53.522;9.806;2022-08-19T04:34:20;34.40;;;13.97;;
4074;SDS011;2052;53.522;9.806;2022-08-19T04:36:50;24.60;;;13.20;;
4074;SDS011;2052;53.522;9.806;2022-08-19T04:39:18;25.67;;;13.00;;
4074;SDS011;2052;53.522;9.806;2022-08-19T04:41:47;28.00;;;13.67;;
4074;SDS011;2052;53.522;9.806;2022-08-19T04:44:37;25.90;;;13.07;;
4074;SDS011;2052;53.522;9.806;2022-08-19T04:47:04;28.70;;;14.00;;
4074;SDS011;2052;53.522;9.806;2022-08-19T04:49:31;27.47;;;12.43;;
4074;SDS011;2052;53.522;9.806;2022-08-19T04:51:59;33.87;;;13.73;;
4074;SDS011;2052;53.522;9.806;2022-08-19T04:54:26;26.30;;;12.90;;
4074;SDS011;2052;53.522;9.806;2022-08-19T04:56:53;26.97;;;13.10;;
4074;SDS011;2052;53.522;9.806;2022-08-19T04:59:20;25.47;;;12.60;;
4074;SDS011;2052;53.522;9.806;2022-08-19T05:01:47;28.70;;;13.63;;
4074;SDS011;2052;53.522;9.806;2022-08-19T05:04:15;26.10;;;12.70;;
4074;SDS011;2052;53.522;9.806;2022-08-19T05:06:43;26.23;;;13.40;;
4074;SDS011;2052;53.522;9.806;2022-08-19T05:09:11;29.63;;;14.20;;
4074;SDS011;2052;53.522;9.806;2022-08-19T05:11:37;27.70;;;13.53;;
4074;SDS011;2052;53.522;9.806;2022-08-19T05:14:04;23.60;;;12.40;;
4074;SDS011;2052;53.522;9.806;2022-08-19T05:16:32;21.33;;;11.10;;
4074;SDS011;2052;53.522;9.806;2022-08-19T05:18:58;22.50;;;12.43;;
4074;SDS011;2052;53.522;9.806;2022-08-19T05:21:43;24.57;;;11.60;;
4074;SDS011;2052;53.522;9.806;2022-08-19T05:24:29;25.93;;;13.63;;
4074;SDS011;2052;53.522;9.806;2022-08-19T05:26:59;20.67;;;12.20;;
4074;SDS011;2052;53.522;9.806;2022-08-19T05:29:28;24.50;;;12.63;;
4074;SDS011;2052;53.522;9.806;2022-08-19T05:32:04;26.77;;;12.57;;
4074;SDS011;2052;53.522;9.806;2022-08-19T05:34:34;21.07;;;10.97;;
4074;SDS011;2052;53.522;9.806;2022-08-19T05:37:03;19.80;;;11.37;;
4074;SDS011;2052;53.522;9.806;2022-08-19T05:39:32;26.67;;;11.30;;
4074;SDS011;2052;53.522;9.806;2022-08-19T05:42:02;20.03;;;10.73;;
4074;SDS011;2052;53.522;9.806;2022-08-19T05:44:33;21.70;;;10.40;;
4074;SDS011;2052;53.522;9.806;2022-08-19T05:47:02;19.43;;;10.67;;
4074;SDS011;2052;53.522;9.806;2022-08-19T05:49:30;30.33;;;11.00;;
4074;SDS011;2052;53.522;9.806;2022-08-19T05:51:58;18.80;;;9.83;;
4074;SDS011;2052;53.522;9.806;2022-08-19T05:54:25;15.37;;;9.77;;
4074;SDS011;2052;53.522;9.806;2022-08-19T05:56:53;22.83;;;9.23;;
4074;SDS011;2052;53.522;9.806;2022-08-19T05:59:20;13.80;;;9.13;;
4074;SDS011;2052;53.522;9.806;2022-08-19T06:01:48;15.77;;;9.00;;
4074;SDS011;2052;53.522;9.806;2022-08-19T06:04:16;14.43;;;9.23;;
4074;SDS011;2052;53.522;9.806;2022-08-19T06:06:44;17.27;;;9.70;;
4074;SDS011;2052;53.522;9.806;2022-08-19T06:09:11;16.27;;;9.83;;
4074;SDS011;2052;53.522;9.806;2022-08-19T06:11:39;18.60;;;9.70;;
4074;SDS011;2052;53.522;9.806;2022-08-19T06:14:10;22.50;;;9.30;;
4074;SDS011;2052;53.522;9.806;2022-08-19T06:16:42;16.73;;;7.87;;
4074;SDS011;2052;53.522;9.806;2022-08-19T06:19:11;14.67;;;9.00;;
4074;SDS011;2052;53.522;9.806;2022-08-19T06:21:40;16.60;;;8.97;;
4074;SDS011;2052;53.522;9.806;2022-08-19T06:24:09;20.50;;;9.23;;
4074;SDS011;2052;53.522;9.806;2022-08-19T06:26:39;20.53;;;10.97;;
4074;SDS011;2052;53.522;9.806;2022-08-19T06:29:10;35.53;;;9.13;;
4074;SDS011;2052;53.522;9.806;2022-08-19T06:31:40;15.60;;;8.33;;
4074;SDS011;2052;53.522;9.806;2022-08-19T06:34:08;14.10;;;9.50;;
4074;SDS011;2052;53.522;9.806;2022-08-19T06:36:36;10.20;;;7.20;;
4074;SDS011;2052;53.522;9.806;2022-08-19T06:39:05;10.00;;;7.23;;
4074;SDS011;2052;53.522;9.806;2022-08-19T06:41:34;10.97;;;7.43;;
4074;SDS011;2052;53.522;9.806;2022-08-19T06:44:02;11.30;;;7.07;;
4074;SDS011;2052;53.522;9.806;2022-08-19T06:46:31;15.40;;;8.27;;
4074;SDS011;2052;53.522;9.806;2022-08-19T06:48:58;20.03;;;9.00;;
4074;SDS011;2052;53.522;9.806;2022-08-19T06:51:25;11.27;;;7.20;;
4074;SDS011;2052;53.522;9.806;2022-08-19T06:53:53;18.37;;;7.87;;
4074;SDS011;2052;53.522;9.806;2022-08-19T06:56:21;16.40;;;9.67;;
4074;SDS011;2052;53.522;9.806;2022-08-19T06:58:56;19.10;;;10.47;;
4074;SDS011;2052;53.522;9.806;2022-08-19T07:01:23;14.63;;;9.63;;
4074;SDS011;2052;53.522;9.806;2022-08-19T07:03:51;18.10;;;10.23;;
4074;SDS011;2052;53.522;9.806;2022-08-19T07:06:18;15.33;;;8.93;;
4074;SDS011;2052;53.522;9.806;2022-08-19T07:08:46;20.20;;;10.43;;
4074;SDS011;2052;53.522;9.806;2022-08-19T07:11:15;11.70;;;7.80;;
4074;SDS011;2052;53.522;9.806;2022-08-19T07:13:43;11.70;;;7.03;;
4074;SDS011;2052;53.522;9.806;2022-08-19T07:16:11;14.90;;;8.93;;
4074;SDS011;2052;53.522;9.806;2022-08-19T07:18:40;9.50;;;6.57;;
4074;SDS011;2052;53.522;9.806;2022-08-19T07:21:11;13.53;;;6.90;;
4074;SDS011;2052;53.522;9.806;2022-08-19T07:23:39;8.93;;;5.97;;
4074;SDS011;2052;53.522;9.806;2022-08-19T07:26:07;15.23;;;7.03;;
4074;SDS011;2052;53.522;9.806;2022-08-19T07:28:34;10.03;;;6.53;;
4074;SDS011;2052;53.522;9.806;2022-08-19T07:31:04;11.90;;;6.80;;
4074;SDS011;2052;53.522;9.806;2022-08-19T07:33:31;11.40;;;6.90;;
4074;SDS011;2052;53.522;9.806;2022-08-19T07:36:02;12.43;;;6.77;;
4074;SDS011;2052;53.522;9.806;2022-08-19T07:38:32;10.87;;;7.93;;
4074;SDS011;2052;53.522;9.806;2022-08-19T07:40:59;11.27;;;7.43;;
4074;SDS011;2052;53.522;9.806;2022-08-19T07:43:27;11.23;;;8.20;;
4074;SDS011;2052;53.522;9.806;2022-08-19T07:45:54;15.90;;;8.47;;
4074;SDS011;2052;53.522;9.806;2022-08-19T07:48:22;12.23;;;7.43;;
4074;SDS011;2052;53.522;9.806;2022-08-19T07:50:50;15.17;;;9.63;;
4074;SDS011;2052;53.522;9.806;2022-08-19T07:53:18;14.97;;;8.73;;
4074;SDS011;2052;53.522;9.806;2022-08-19T07:55:46;12.97;;;8.97;;
4074;SDS011;2052;53.522;9.806;2022-08-19T07:58:14;12.93;;;8.73;;
4074;SDS011;2052;53.522;9.806;2022-08-19T08:00:47;15.97;;;8.67;;
4074;SDS011;2052;53.522;9.806;2022-08-19T08:03:16;16.77;;;8.40;;
4074;SDS011;2052;53.522;9.806;2022-08-19T08:05:44;12.63;;;8.47;;
4074;SDS011;2052;53.522;9.806;2022-08-19T08:08:30;19.00;;;9.47;;
4074;SDS011;2052;53.522;9.806;2022-08-19T08:11:16;16.93;;;9.30;;
4074;SDS011;2052;53.522;9.806;2022-08-19T08:13:45;13.43;;;9.27;;
4074;SDS011;2052;53.522;9.806;2022-08-19T08:16:11;17.73;;;11.27;;
4074;SDS011;2052;53.522;9.806;2022-08-19T08:18:38;15.63;;;9.37;;
4074;SDS011;2052;53.522;9.806;2022-08-19T08:21:07;13.47;;;8.60;;
4074;SDS011;2052;53.522;9.806;2022-08-19T08:23:34;14.80;;;7.90;;
4074;SDS011;2052;53.522;9.806;2022-08-19T08:26:01;17.10;;;8.60;;
4074;SDS011;2052;53.522;9.806;2022-08-19T08:28:31;13.87;;;9.57;;
4074;SDS011;2052;53.522;9.806;2022-08-19T08:30:58;20.20;;;9.03;;
4074;SDS011;2052;53.522;9.806;2022-08-19T08:33:26;15.57;;;9.17;;
4074;SDS011;2052;53.522;9.806;2022-08-19T08:35:55;20.43;;;9.30;;
4074;SDS011;2052;53.522;9.806;2022-08-19T08:38:22;19.47;;;8.80;;
4074;SDS011;2052;53.522;9.806;2022-08-19T08:40:49;16.87;;;10.43;;
4074;SDS011;2052;53.522;9.806;2022-08-19T08:43:20;16.50;;;9.00;;
4074;SDS011;2052;53.522;9.806;2022-08-19T08:45:54;22.80;;;9.63;;
4074;SDS011;2052;53.522;9.806;2022-08-19T08:48:27;12.70;;;8.90;;
4074;SDS011;2052;53.522;9.806;2022-08-19T08:51:03;11.73;;;8.97;;
4074;SDS011;2052;53.522;9.806;2022-08-19T08:53:31;15.17;;;9.87;;
4074;SDS011;2052;53.522;9.806;2022-08-19T08:56:00;16.87;;;9.47;;
4074;SDS011;2052;53.522;9.806;2022-08-19T08:58:32;16.67;;;8.77;;
4074;SDS011;2052;53.522;9.806;2022-08-19T09:01:09;16.80;;;9.70;;
4074;SDS011;2052;53.522;9.806;2022-08-19T09:03:37;24.40;;;9.27;;
4074;SDS011;2052;53.522;9.806;2022-08-19T09:06:07;13.83;;;8.73;;
4074;SDS011;2052;53.522;9.806;2022-08-19T09:08:39;11.53;;;7.20;;
4074;SDS011;2052;53.522;9.806;2022-08-19T09:11:09;15.07;;;8.37;;
4074;SDS011;2052;53.522;9.806;2022-08-19T09:13:41;11.53;;;8.17;;
4074;SDS011;2052;53.522;9.806;2022-08-19T09:16:13;14.27;;;8.63;;
4074;SDS011;2052;53.522;9.806;2022-08-19T09:18:42;14.80;;;8.80;;
4074;SDS011;2052;53.522;9.806;2022-08-19T09:21:11;9.60;;;7.63;;
4074;SDS011;2052;53.522;9.806;2022-08-19T09:23:38;13.20;;;7.73;;
4074;SDS011;2052;53.522;9.806;2022-08-19T09:26:08;15.93;;;9.23;;
4074;SDS011;2052;53.522;9.806;2022-08-19T09:28:38;13.63;;;7.97;;
4074;SDS011;2052;53.522;9.806;2022-08-19T09:31:06;14.13;;;8.43;;
4074;SDS011;2052;53.522;9.806;2022-08-19T09:33:34;19.50;;;11.17;;
4074;SDS011;2052;53.522;9.806;2022-08-19T09:36:02;17.80;;;9.53;;
4074;SDS011;2052;53.522;9.806;2022-08-19T09:38:31;21.80;;;10.67;;
4074;SDS011;2052;53.522;9.806;2022-08-19T09:41:01;18.60;;;10.97;;
4074;SDS011;2052;53.522;9.806;2022-08-19T09:43:30;16.70;;;10.87;;
4074;SDS011;2052;53.522;9.806;2022-08-19T09:45:57;21.30;;;12.17;;
4074;SDS011;2052;53.522;9.806;2022-08-19T09:48:27;24.17;;;13.50;;
4074;SDS011;2052;53.522;9.806;2022-08-19T09:50:55;25.13;;;13.70;;
4074;SDS011;2052;53.522;9.806;2022-08-19T09:53:29;21.60;;;12.77;;
4074;SDS011;2052;53.522;9.806;2022-08-19T09:55:56;22.70;;;12.30;;
4074;SDS011;2052;53.522;9.806;2022-08-19T09:58:23;16.13;;;10.67;;
4074;SDS011;2052;53.522;9.806;2022-08-19T10:00:52;19.60;;;11.67;;
4074;SDS011;2052;53.522;9.806;2022-08-19T10:03:20;18.60;;;11.40;;
4074;SDS011;2052;53.522;9.806;2022-08-19T10:05:47;17.23;;;11.87;;
4074;SDS011;2052;53.522;9.806;2022-08-19T10:08:16;21.50;;;11.73;;
4074;SDS011;2052;53.522;9.806;2022-08-19T10:10:44;25.67;;;12.70;;
4074;SDS011;2052;53.522;9.806;2022-08-19T10:13:12;25.40;;;13.80;;
4074;SDS011;2052;53.522;9.806;2022-08-19T10:15:41;23.10;;;14.60;;
4074;SDS011;2052;53.522;9.806;2022-08-19T10:18:07;27.50;;;14.80;;
4074;SDS011;2052;53.522;9.806;2022-08-19T10:20:36;21.73;;;13.13;;
4074;SDS011;2052;53.522;9.806;2022-08-19T10:23:03;24.50;;;14.97;;
4074;SDS011;2052;53.522;9.806;2022-08-19T10:25:32;29.50;;;14.70;;
4074;SDS011;2052;53.522;9.806;2022-08-19T10:28:00;26.43;;;14.40;;
4074;SDS011;2052;53.522;9.806;2022-08-19T10:30:26;28.33;;;14.57;;
4074;SDS011;2052;53.522;9.806;2022-08-19T10:32:54;24.70;;;14.93;;
4074;SDS011;2052;53.522;9.806;2022-08-19T10:35:21;24.10;;;14.13;;
4074;SDS011;2052;53.522;9.806;2022-08-19T10:37:47;33.43;;;14.57;;
4074;SDS011;2052;53.522;9.806;2022-08-19T10:40:15;27.07;;;14.70;;
4074;SDS011;2052;53.522;9.806;2022-08-19T10:42:43;22.57;;;14.00;;
4074;SDS011;2052;53.522;9.806;2022-08-19T10:45:10;25.33;;;14.90;;
4074;SDS011;2052;53.522;9.806;2022-08-19T10:47:37;26.93;;;15.70;;
4074;SDS011;2052;53.522;9.806;2022-08-19T10:50:04;27.23;;;14.87;;
4074;SDS011;2052;53.522;9.806;2022-08-19T10:52:49;22.47;;;14.53;;
4074;SDS011;2052;53.522;9.806;2022-08-19T10:55:17;24.30;;;13.67;;
4074;SDS011;2052;53.522;9.806;2022-08-19T10:58:03;21.77;;;12.57;;
4074;SDS011;2052;53.522;9.806;2022-08-19T11:00:30;26.07;;;14.90;;
4074;SDS011;2052;53.522;9.806;2022-08-19T11:02:57;26.00;;;14.17;;
4074;SDS011;2052;53.522;9.806;2022-08-19T11:05:24;20.70;;;13.30;;
4074;SDS011;2052;53.522;9.806;2022-08-19T11:07:51;21.57;;;13.10;;
4074;SDS011;2052;53.522;9.806;2022-08-19T11:10:17;24.93;;;13.50;;
4074;SDS011;2052;53.522;9.806;2022-08-19T11:12:44;23.73;;;13.13;;
4074;SDS011;2052;53.522;9.806;2022-08-19T11:15:14;23.90;;;14.53;;
4074;SDS011;2052;53.522;9.806;2022-08-19T11:17:41;23.77;;;14.00;;
4074;SDS011;2052;53.522;9.806;2022-08-19T11:20:09;21.60;;;12.43;;
4074;SDS011;2052;53.522;9.806;2022-08-19T11:22:37;22.73;;;13.67;;
4074;SDS011;2052;53.522;9.806;2022-08-19T11:25:05;19.37;;;12.27;;
4074;SDS011;2052;53.522;9.806;2022-08-19T11:27:32;22.40;;;13.50;;
4074;SDS011;2052;53.522;9.806;2022-08-19T11:29:59;23.80;;;13.30;;
4074;SDS011;2052;53.522;9.806;2022-08-19T11:32:30;20.20;;;13.40;;
4074;SDS011;2052;53.522;9.806;2022-08-19T11:34:57;24.00;;;14.80;;
4074;SDS011;2052;53.522;9.806;2022-08-19T11:37:23;24.03;;;14.93;;
4074;SDS011;2052;53.522;9.806;2022-08-19T11:39:50;24.50;;;15.80;;
4074;SDS011;2052;53.522;9.806;2022-08-19T11:42:17;19.53;;;14.27;;
4074;SDS011;2052;53.522;9.806;2022-08-19T11:45:02;20.70;;;12.90;;
4074;SDS011;2052;53.522;9.806;2022-08-19T11:47:30;23.03;;;15.80;;
4074;SDS011;2052;53.522;9.806;2022-08-19T11:49:57;22.80;;;14.60;;
4074;SDS011;2052;53.522;9.806;2022-08-19T11:52:24;23.17;;;15.43;;
4074;SDS011;2052;53.522;9.806;2022-08-19T11:54:51;23.50;;;16.03;;
4074;SDS011;2052;53.522;9.806;2022-08-19T11:57:18;29.40;;;17.17;;
4074;SDS011;2052;53.522;9.806;2022-08-19T11:59:47;26.13;;;15.67;;
4074;SDS011;2052;53.522;9.806;2022-08-19T12:02:14;22.80;;;14.33;;
4074;SDS011;2052;53.522;9.806;2022-08-19T12:04:42;18.17;;;13.80;;
4074;SDS011;2052;53.522;9.806;2022-08-19T12:07:09;17.80;;;12.70;;
4074;SDS011;2052;53.522;9.806;2022-08-19T12:09:36;21.17;;;14.50;;
4074;SDS011;2052;53.522;9.806;2022-08-19T12:12:04;20.63;;;14.20;;
4074;SDS011;2052;53.522;9.806;2022-08-19T12:14:31;23.20;;;15.40;;
4074;SDS011;2052;53.522;9.806;2022-08-19T12:16:58;21.13;;;14.10;;
4074;SDS011;2052;53.522;9.806;2022-08-19T12:19:25;22.27;;;15.80;;
4074;SDS011;2052;53.522;9.806;2022-08-19T12:21:53;24.17;;;16.27;;
4074;SDS011;2052;53.522;9.806;2022-08-19T12:24:26;31.03;;;18.60;;
4074;SDS011;2052;53.522;9.806;2022-08-19T12:26:54;26.10;;;16.67;;
4074;SDS011;2052;53.522;9.806;2022-08-19T12:29:22;21.40;;;15.20;;
4074;SDS011;2052;53.522;9.806;2022-08-19T12:31:49;23.40;;;15.17;;
4074;SDS011;2052;53.522;9.806;2022-08-19T12:34:16;20.23;;;13.37;;
4074;SDS011;2052;53.522;9.806;2022-08-19T12:36:44;18.57;;;13.77;;
4074;SDS011;2052;53.522;9.806;2022-08-19T12:39:15;18.43;;;13.40;;
4074;SDS011;2052;53.522;9.806;2022-08-19T12:41:42;20.50;;;14.20;;
4074;SDS011;2052;53.522;9.806;2022-08-19T12:44:08;15.47;;;11.67;;
4074;SDS011;2052;53.522;9.806;2022-08-19T12:46:37;16.07;;;12.27;;
4074;SDS011;2052;53.522;9.806;2022-08-19T12:49:04;15.60;;;11.27;;
4074;SDS011;2052;53.522;9.806;2022-08-19T12:51:31;16.47;;;10.70;;
4074;SDS011;2052;53.522;9.806;2022-08-19T12:53:57;16.17;;;12.27;;
4074;SDS011;2052;53.522;9.806;2022-08-19T12:56:25;16.07;;;12.33;;
4074;SDS011;2052;53.522;9.806;2022-08-19T12:58:52;15.17;;;11.13;;
4074;SDS011;2052;53.522;9.806;2022-08-19T13:01:19;14.03;;;10.83;;
4074;SDS011;2052;53.522;9.806;2022-08-19T13:03:46;15.60;;;11.13;;
4074;SDS011;2052;53.522;9.806;2022-08-19T13:06:13;17.87;;;11.50;;
4074;SDS011;2052;53.522;9.806;2022-08-19T13:08:40;13.97;;;10.90;;
4074;SDS011;2052;53.522;9.806;2022-08-19T13:11:09;15.57;;;11.07;;
4074;SDS011;2052;53.522;9.806;2022-08-19T13:13:38;14.00;;;10.27;;
4074;SDS011;2052;53.522;9.806;2022-08-19T13:16:06;15.73;;;10.07;;
4074;SDS011;2052;53.522;9.806;2022-08-19T13:18:34;14.73;;;10.90;;
4074;SDS011;2052;53.522;9.806;2022-08-19T13:21:02;13.50;;;10.43;;
4074;SDS011;2052;53.522;9.806;2022-08-19T13:23:30;13.10;;;10.80;;
4074;SDS011;2052;53.522;9.806;2022-08-19T13:25:57;13.50;;;10.17;;
4074;SDS011;2052;53.522;9.806;2022-08-19T13:28:24;11.97;;;9.77;;
4074;SDS011;2052;53.522;9.806;2022-08-19T13:30:52;13.97;;;9.57;;
4074;SDS011;2052;53.522;9.806;2022-08-19T13:33:37;13.77;;;11.33;;
4074;SDS011;2052;53.522;9.806;2022-08-19T13:36:03;14.03;;;10.70;;
4074;SDS011;2052;53.522;9.806;2022-08-19T13:38:32;13.13;;;10.60;;
4074;SDS011;2052;53.522;9.806;2022-08-19T13:41:04;18.53;;;12.03;;
4074;SDS011;2052;53.522;9.806;2022-08-19T13:43:31;18.17;;;11.60;;
4074;SDS011;2052;53.522;9.806;2022-08-19T13:45:59;16.07;;;10.83;;
4074;SDS011;2052;53.522;9.806;2022-08-19T13:48:27;14.20;;;10.90;;
4074;SDS011;2052;53.522;9.806;2022-08-19T13:50:54;12.63;;;10.07;;
4074;SDS011;2052;53.522;9.806;2022-08-19T13:53:29;13.53;;;10.13;;
4074;SDS011;2052;53.522;9.806;2022-08-19T13:55:56;11.60;;;9.67;;
4074;SDS011;2052;53.522;9.806;2022-08-19T13:58:23;11.00;;;9.27;;
4074;SDS011;2052;53.522;9.806;2022-08-19T14:00:50;13.90;;;10.03;;
4074;SDS011;2052;53.522;9.806;2022-08-19T14:03:18;11.73;;;9.63;;
4074;SDS011;2052;53.522;9.806;2022-08-19T14:05:45;9.90;;;8.47;;
4074;SDS011;2052;53.522;9.806;2022-08-19T14:08:12;14.77;;;10.07;;
4074;SDS011;2052;53.522;9.806;2022-08-19T14:10:39;11.83;;;10.00;;
4074;SDS011;2052;53.522;9.806;2022-08-19T14:13:07;12.50;;;8.90;;
4074;SDS011;2052;53.522;9.806;2022-08-19T14:15:34;10.60;;;8.93;;
4074;SDS011;2052;53.522;9.806;2022-08-19T14:18:02;8.80;;;7.07;;
4074;SDS011;2052;53.522;9.806;2022-08-19T14:20:30;9.50;;;7.70;;
4074;SDS011;2052;53.522;9.806;2022-08-19T14:23:00;12.70;;;7.70;;
4074;SDS011;2052;53.522;9.806;2022-08-19T14:25:28;11.57;;;8.30;;
4074;SDS011;2052;53.522;9.806;2022-08-19T14:27:56;8.87;;;7.67;;
4074;SDS011;2052;53.522;9.806;2022-08-19T14:30:24;12.83;;;8.30;;
4074;SDS011;2052;53.522;9.806;2022-08-19T14:32:53;10.43;;;8.90;;
4074;SDS011;2052;53.522;9.806;2022-08-19T14:35:20;8.97;;;8.07;;
4074;SDS011;2052;53.522;9.806;2022-08-19T14:37:49;9.80;;;8.20;;
4074;SDS011;2052;53.522;9.806;2022-08-19T14:40:19;10.53;;;9.30;;
4074;SDS011;2052;53.522;9.806;2022-08-19T14:42:47;11.30;;;8.60;;
4074;SDS011;2052;53.522;9.806;2022-08-19T14:45:14;11.30;;;9.97;;
4074;SDS011;2052;53.522;9.806;2022-08-19T14:47:40;9.90;;;7.70;;
4074;SDS011;2052;53.522;9.806;2022-08-19T14:50:08;13.30;;;8.80;;
4074;SDS011;2052;53.522;9.806;2022-08-19T14:52:36;10.57;;;8.20;;
4074;SDS011;2052;53.522;9.806;2022-08-19T14:55:04;10.73;;;8.70;;
4074;SDS011;2052;53.522;9.806;2022-08-19T14:57:31;10.23;;;8.83;;
4074;SDS011;2052;53.522;9.806;2022-08-19T14:59:58;9.50;;;8.03;;
4074;SDS011;2052;53.522;9.806;2022-08-19T15:02:25;8.97;;;7.23;;
4074;SDS011;2052;53.522;9.806;2022-08-19T15:04:52;9.93;;;7.47;;
4074;SDS011;2052;53.522;9.806;2022-08-19T15:07:20;9.90;;;7.70;;